Time;durP1;ratioP1;P1;durP2;ratioP2;P2;SDS_P1;SDS_P2;PMS_P1;PMS_P2;Temp;Humidity;BMP_temperature;BMP_pressure;BME280_temperature;BME280_humidity;BME280_pressure;Samples;Min_cycle;Max_cycle;Signal;HPM_P1;HPM_P2
2022/01/12 00:00:27;;;;;;;;;;;;;;;3.36;100.00;103572.22;5013954;28;19917;-77
2022/01/12 00:02:53;;;;;;;;;;;;;;;3.38;100.00;103575.75;5030015;28;19924;-76
2022/01/12 00:05:18;;;;;;;;;;;;;;;3.41;100.00;103560.25;5034774;28;19916;-75
2022/01/12 00:07:46;;;;;;;;;;;;;;;3.43;100.00;103561.16;5051753;28;19921;-79
2022/01/12 00:10:11;;;;;;;;;;;;;;;3.46;100.00;103565.59;5039821;28;19937;-74
2022/01/12 00:12:36;;;;;;;;;;;;;;;3.47;100.00;103565.63;5015125;28;20583;-78
2022/01/12 00:15:02;;;;;;;;;;;;;;;3.49;100.00;103561.34;5031975;28;20376;-73
2022/01/12 00:17:27;;;;;;;;;;;;;;;3.51;100.00;103551.88;5030487;28;19921;-75
2022/01/12 00:19:53;;;;;;;;;;;;;;;3.53;100.00;103552.78;5026151;28;19925;-74
2022/01/12 00:22:18;;;;;;;;;;;;;;;3.56;100.00;103558.06;5045519;28;20003;-74
2022/01/12 00:35:27;;;;;;;;;;;;;;;3.68;100.00;103580.03;5003276;28;20517;-78
2022/01/12 00:37:52;;;;;;;;;;;;;;;3.70;100.00;103580.94;5042626;28;19922;-77
2022/01/12 00:40:17;;;;;;;;;;;;;;;3.71;100.00;103583.56;5041296;28;19921;-77
2022/01/12 00:42:43;;;;;;;;;;;;;;;3.75;100.00;103584.53;5032367;28;19918;-77
2022/01/12 00:45:09;;;;;;;;;;;;;;;3.75;100.00;103581.94;5047924;28;19931;-78
2022/01/12 00:47:34;;;;;;;;;;;;;;;3.78;100.00;103575.97;5048817;28;19956;-76
2022/01/12 00:49:59;;;;;;;;;;;;;;;3.79;100.00;103572.53;5047081;28;19956;-76
2022/01/12 00:52:25;;;;;;;;;;;;;;;3.78;100.00;103561.22;5032404;28;20299;-78
2022/01/12 00:54:50;;;;;;;;;;;;;;;3.77;100.00;103559.47;5033221;28;19916;-76
2022/01/12 00:57:15;;;;;;;;;;;;;;;3.75;100.00;103548.13;5028346;28;19929;-78
2022/01/12 00:59:41;;;;;;;;;;;;;;;3.72;100.00;103555.88;5028568;28;19928;-76
2022/01/12 01:02:06;;;;;;;;;;;;;;;3.70;100.00;103553.22;5033302;28;19944;-74
2022/01/12 01:04:31;;;;;;;;;;;;;;;3.66;100.00;103556.59;5027453;28;19921;-73
2022/01/12 01:06:56;;;;;;;;;;;;;;;3.64;100.00;103547.00;5028367;28;20329;-79
2022/01/12 01:09:23;;;;;;;;;;;;;;;3.62;100.00;103551.28;5028549;28;20432;-79
2022/01/12 01:11:49;;;;;;;;;;;;;;;3.59;100.00;103546.00;5034202;28;19927;-79
2022/01/12 01:14:21;;;;;;;;;;;;;;;3.62;100.00;103551.28;5037935;28;19917;-78
2022/01/12 01:17:04;;;;;;;;;;;;;;;3.53;100.00;103564.91;5031866;28;20448;-77
2022/01/12 01:27:31;;;;;;;;;;;;;;;3.56;100.00;103620.44;5027213;28;20017;-77
2022/01/12 01:29:57;;;;;;;;;;;;;;;3.54;100.00;103629.91;5029784;28;20011;-77
2022/01/12 01:32:24;;;;;;;;;;;;;;;3.57;100.00;103639.53;5029930;28;19927;-74
2022/01/12 01:34:50;;;;;;;;;;;;;;;3.60;100.00;103647.41;5027274;28;19928;-72
2022/01/12 01:37:15;;;;;;;;;;;;;;;3.64;100.00;103657.06;5028222;28;20605;-73
2022/01/12 01:39:41;;;;;;;;;;;;;;;3.68;100.00;103671.03;5029394;28;19922;-73
2022/01/12 01:42:17;;;;;;;;;;;;;;;3.68;100.00;103666.72;5009045;28;20012;-72
2022/01/12 01:55:12;;;;;;;;;;;;;;;3.76;100.00;103700.72;5029127;28;19964;-71
2022/01/12 01:57:38;;;;;;;;;;;;;;;3.78;100.00;103711.19;5021446;28;19971;-72
2022/01/12 02:00:05;;;;;;;;;;;;;;;3.76;100.00;103716.31;5024608;28;19964;-72
2022/01/12 02:02:31;;;;;;;;;;;;;;;3.70;100.00;103706.63;5018720;28;19921;-71
2022/01/12 02:04:56;;;;;;;;;;;;;;;3.75;100.00;103704.16;5022666;28;19929;-72
2022/01/12 02:07:21;;;;;;;;;;;;;;;3.73;100.00;103700.66;5044935;28;20432;-72
2022/01/12 02:09:47;;;;;;;;;;;;;;;3.74;100.00;103702.41;5037863;28;19917;-72
2022/01/12 02:12:13;;;;;;;;;;;;;;;3.75;100.00;103692.88;5026113;28;20013;-71
2022/01/12 02:14:38;;;;;;;;;;;;;;;3.73;100.00;103698.03;5026110;28;20496;-73
2022/01/12 02:17:10;;;;;;;;;;;;;;;3.76;100.00;103710.25;5025797;28;19971;-73
2022/01/12 02:35:51;;;;;;;;;;;;;;;3.82;100.00;103700.91;5033360;28;19920;-73
2022/01/12 02:41:12;;;;;;;;;;;;;;;3.97;100.00;103709.97;5009747;28;20758;-72
2022/01/12 02:50:35;;;;;;;;;;;;;;;3.97;100.00;103715.19;5012518;28;19921;-73
2022/01/12 02:54:24;;;;;;;;;;;;;;;3.85;100.00;103706.19;5032127;28;19927;-72
2022/01/12 02:56:50;;;;;;;;;;;;;;;3.93;100.00;103705.50;5044512;28;20007;-72
2022/01/12 02:59:15;;;;;;;;;;;;;;;3.94;100.00;103709.88;5024993;28;19934;-72
2022/01/12 03:02:41;;;;;;;;;;;;;;;4.03;100.00;103710.13;5026061;28;19924;-73
2022/01/12 03:04:26;;;;;;;;;;;;;;;3.95;100.00;103722.91;5042500;28;20376;-73
2022/01/12 03:06:52;;;;;;;;;;;;;;;3.90;100.00;103715.81;5057419;28;19928;-73
2022/01/12 03:09:17;;;;;;;;;;;;;;;3.95;100.00;103732.47;5045050;28;19924;-73
2022/01/12 03:11:42;;;;;;;;;;;;;;;4.00;100.00;103736.06;5023144;28;19957;-71
2022/01/12 03:14:09;;;;;;;;;;;;;;;4.02;100.00;103730.03;5013946;28;20346;-71
2022/01/12 03:16:35;;;;;;;;;;;;;;;3.99;100.00;103736.88;5007937;28;19929;-72
2022/01/12 03:19:03;;;;;;;;;;;;;;;3.89;100.00;103733.16;5024304;28;19923;-72
2022/01/12 03:21:30;;;;;;;;;;;;;;;3.79;100.00;103729.41;5035346;28;20281;-73
2022/01/12 03:23:55;;;;;;;;;;;;;;;3.70;100.00;103734.34;5047331;28;19921;-73
2022/01/12 03:26:21;;;;;;;;;;;;;;;3.68;100.00;103729.13;5030721;28;20386;-73
2022/01/12 03:28:52;;;;;;;;;;;;;;;3.58;100.00;103740.09;5027705;28;19917;-72
2022/01/12 03:31:21;;;;;;;;;;;;;;;3.58;100.00;103747.88;5025113;28;20305;-73
2022/01/12 03:38:56;;;;;;;;;;;;;;;3.45;100.00;103763.94;5026255;28;19921;-73
2022/01/12 03:41:21;;;;;;;;;;;;;;;3.36;100.00;103757.59;5007730;28;19955;-72
2022/01/12 03:43:47;;;;;;;;;;;;;;;3.32;100.00;103754.88;5040318;28;19956;-73
2022/01/12 03:46:13;;;;;;;;;;;;;;;3.31;100.00;103750.53;5039836;28;19923;-72
2022/01/12 03:48:39;;;;;;;;;;;;;;;3.26;100.00;103739.97;5027502;28;19925;-73
2022/01/12 03:51:04;;;;;;;;;;;;;;;3.24;100.00;103739.06;5031507;28;19917;-74
2022/01/12 03:53:29;;;;;;;;;;;;;;;3.19;100.00;103728.53;5031297;28;20036;-75
2022/01/12 03:55:55;;;;;;;;;;;;;;;3.12;100.00;103731.75;5033125;28;19979;-72
2022/01/12 03:58:20;;;;;;;;;;;;;;;3.06;100.00;103726.38;5026971;28;19972;-71
2022/01/12 04:00:45;;;;;;;;;;;;;;;2.97;100.00;103726.09;5028209;28;20014;-71
2022/01/12 04:03:12;;;;;;;;;;;;;;;2.83;100.00;103723.03;5027629;28;20494;-71
2022/01/12 04:10:45;;;;;;;;;;;;;;;2.58;100.00;103737.81;5025449;28;19952;-73
2022/01/12 04:13:10;;;;;;;;;;;;;;;2.52;100.00;103747.97;5028556;28;19949;-74
2022/01/12 04:15:35;;;;;;;;;;;;;;;2.47;100.00;103764.28;5028957;28;19929;-72
2022/01/12 04:18:01;;;;;;;;;;;;;;;2.53;100.00;103757.53;5029582;28;19917;-73
2022/01/12 04:20:26;;;;;;;;;;;;;;;2.68;100.00;103763.25;5028391;28;20016;-73
2022/01/12 04:25:32;;;;;;;;;;;;;;;2.83;100.00;103752.50;5026666;28;19972;-73
2022/01/12 04:27:57;;;;;;;;;;;;;;;2.88;100.00;103747.44;5027516;28;20445;-72
2022/01/12 04:30:23;;;;;;;;;;;;;;;2.88;100.00;103742.25;5027233;28;19917;-73
2022/01/12 04:32:48;;;;;;;;;;;;;;;2.94;100.00;103743.34;5030422;28;20398;-72
2022/01/12 04:35:15;;;;;;;;;;;;;;;2.95;100.00;103746.81;5027847;28;19922;-71
2022/01/12 04:37:41;;;;;;;;;;;;;;;2.97;100.00;103745.16;5025566;28;20393;-72
2022/01/12 04:40:06;;;;;;;;;;;;;;;2.94;100.00;103738.16;5017135;28;19933;-72
2022/01/12 04:42:34;;;;;;;;;;;;;;;2.96;100.00;103745.97;5007340;28;19927;-73
2022/01/12 04:45:13;;;;;;;;;;;;;;;2.90;100.00;103757.03;5013048;28;20294;-71
2022/01/12 04:50:21;;;;;;;;;;;;;;;2.89;100.00;103747.47;4990180;28;19921;-73
2022/01/12 04:52:46;;;;;;;;;;;;;;;2.91;100.00;103757.94;5007458;28;19925;-73
2022/01/12 04:55:11;;;;;;;;;;;;;;;2.89;100.00;103763.06;5014572;28;20278;-72
2022/01/12 04:57:37;;;;;;;;;;;;;;;2.95;100.00;103764.97;5029218;28;19920;-73
2022/01/12 05:13:28;;;;;;;;;;;;;;;2.84;100.00;103781.91;5008629;28;19960;-74
2022/01/12 05:15:54;;;;;;;;;;;;;;;2.73;100.00;103784.19;5010220;28;20571;-74
2022/01/12 05:18:19;;;;;;;;;;;;;;;2.60;100.00;103788.03;5008902;28;20012;-72
2022/01/12 05:20:46;;;;;;;;;;;;;;;2.50;100.00;103785.97;5015647;28;20385;-73
2022/01/12 05:23:11;;;;;;;;;;;;;;;2.57;100.00;103780.19;5026928;28;19921;-72
2022/01/12 05:25:37;;;;;;;;;;;;;;;2.57;100.00;103778.44;5033505;28;19948;-71
2022/01/12 05:28:02;;;;;;;;;;;;;;;2.55;100.00;103787.88;5027357;28;19921;-71
2022/01/12 05:30:27;;;;;;;;;;;;;;;2.58;100.00;103784.53;5026652;28;20358;-71
2022/01/12 05:32:53;;;;;;;;;;;;;;;2.48;100.00;103791.13;5027311;28;19921;-73
2022/01/12 05:35:20;;;;;;;;;;;;;;;2.45;100.00;103791.00;5026285;28;20370;-73
2022/01/12 05:37:45;;;;;;;;;;;;;;;2.41;100.00;103796.94;5028418;28;19966;-77
2022/01/12 05:40:12;;;;;;;;;;;;;;;2.44;100.00;103797.00;5026728;28;19917;-78
2022/01/12 05:42:37;;;;;;;;;;;;;;;2.41;100.00;103804.72;5031067;28;19935;-75
2022/01/12 05:45:04;;;;;;;;;;;;;;;2.37;100.00;103800.22;5030859;28;19917;-75
2022/01/12 05:50:10;;;;;;;;;;;;;;;2.37;100.00;103800.22;5029529;28;19920;-78
2022/01/12 05:52:35;;;;;;;;;;;;;;;2.32;100.00;103811.31;5030547;28;20334;-77
2022/01/12 05:55:02;;;;;;;;;;;;;;;2.27;100.00;103814.56;5033141;28;19921;-76
2022/01/12 05:57:29;;;;;;;;;;;;;;;2.16;100.00;103828.03;5024431;28;20016;-75
2022/01/12 05:59:55;;;;;;;;;;;;;;;2.15;100.00;103825.41;5046693;28;20007;-74
2022/01/12 06:02:20;;;;;;;;;;;;;;;2.15;100.00;103825.41;5043264;28;20354;-74
2022/01/12 06:04:46;;;;;;;;;;;;;;;2.22;100.00;103835.16;5030651;28;19921;-74
2022/01/12 06:07:11;;;;;;;;;;;;;;;2.20;100.00;103831.66;5030892;28;20411;-74
2022/01/12 06:09:36;;;;;;;;;;;;;;;2.23;100.00;103836.06;5030495;28;19968;-77
2022/01/12 06:12:02;;;;;;;;;;;;;;;2.21;100.00;103835.97;5028380;28;19968;-76
2022/01/12 06:14:27;;;;;;;;;;;;;;;2.27;100.00;103838.81;5030862;28;19939;-77
2022/01/12 06:16:52;;;;;;;;;;;;;;;2.24;100.00;103846.47;5021602;28;19917;-78
2022/01/12 06:19:18;;;;;;;;;;;;;;;2.30;100.00;103838.03;5031048;28;19951;-78
2022/01/12 06:21:44;;;;;;;;;;;;;;;2.34;100.00;103841.63;5028392;28;19918;-76
2022/01/12 06:24:09;;;;;;;;;;;;;;;2.36;100.00;103851.25;5025464;28;20374;-74
2022/01/12 06:26:36;;;;;;;;;;;;;;;2.38;100.00;103848.69;5035421;28;19961;-75
2022/01/12 06:31:44;;;;;;;;;;;;;;;2.56;100.00;103849.34;5012420;28;19993;-74
2022/01/12 06:34:09;;;;;;;;;;;;;;;2.49;100.00;103865.53;5030030;28;19924;-74
2022/01/12 06:36:34;;;;;;;;;;;;;;;2.44;100.00;103873.16;5029543;28;19917;-73
2022/01/12 06:39:00;;;;;;;;;;;;;;;2.44;100.00;103872.25;5030778;28;19924;-75
2022/01/12 06:41:25;;;;;;;;;;;;;;;2.50;100.00;103874.19;5030256;28;19921;-74
2022/01/12 06:43:51;;;;;;;;;;;;;;;2.49;100.00;103886.31;5030314;28;19917;-74
2022/01/12 06:46:22;;;;;;;;;;;;;;;2.52;100.00;103889.03;5027044;28;19928;-75
2022/01/12 06:48:47;;;;;;;;;;;;;;;2.56;100.00;103900.41;5026384;28;19925;-75
2022/01/12 06:51:13;;;;;;;;;;;;;;;2.63;100.00;103908.47;5028176;28;19944;-74
2022/01/12 06:53:38;;;;;;;;;;;;;;;2.49;100.00;103899.28;5029783;28;19921;-75
2022/01/12 06:56:04;;;;;;;;;;;;;;;2.36;100.00;103900.56;5040124;28;19927;-74
2022/01/12 06:58:29;;;;;;;;;;;;;;;2.40;100.00;103899.81;5050109;28;19974;-74
2022/01/12 07:00:54;;;;;;;;;;;;;;;2.41;100.00;103898.13;5047308;28;19956;-77
2022/01/12 07:03:20;;;;;;;;;;;;;;;2.28;100.00;103899.34;5029223;28;20316;-75
2022/01/12 07:05:46;;;;;;;;;;;;;;;2.29;100.00;103902.03;5028124;28;19921;-75
2022/01/12 07:08:11;;;;;;;;;;;;;;;2.25;100.00;103894.06;5015429;28;19967;-75
2022/01/12 07:10:37;;;;;;;;;;;;;;;2.18;100.00;103898.16;5008295;28;19917;-75
2022/01/12 07:13:02;;;;;;;;;;;;;;;2.19;100.00;103905.09;5009283;28;19928;-76
2022/01/12 07:15:27;;;;;;;;;;;;;;;2.22;100.00;103918.16;5009677;28;20012;-73
2022/01/12 07:17:52;;;;;;;;;;;;;;;2.27;100.00;103921.84;5028596;28;20279;-74
2022/01/12 07:20:18;;;;;;;;;;;;;;;2.32;100.00;103920.28;5028047;28;19924;-75
2022/01/12 07:22:43;;;;;;;;;;;;;;;2.40;100.00;103920.56;5030186;28;19917;-76
2022/01/12 07:25:09;;;;;;;;;;;;;;;2.47;100.00;103912.22;5032603;28;19921;-75
2022/01/12 07:27:34;;;;;;;;;;;;;;;2.45;100.00;103913.88;5033192;28;19925;-75
2022/01/12 07:30:00;;;;;;;;;;;;;;;2.44;100.00;103908.59;5051526;28;19924;-77
2022/01/12 07:32:28;;;;;;;;;;;;;;;2.42;100.00;103907.69;5026195;28;19925;-77
2022/01/12 07:34:54;;;;;;;;;;;;;;;2.39;100.00;103908.44;5036015;28;19917;-77
2022/01/12 07:37:19;;;;;;;;;;;;;;;2.30;100.00;103906.41;5012514;28;19921;-77
2022/01/12 07:39:44;;;;;;;;;;;;;;;2.21;100.00;103911.22;5031843;28;19955;-77
2022/01/12 07:42:11;;;;;;;;;;;;;;;2.17;100.00;103914.53;5031800;28;19921;-75
2022/01/12 07:44:39;;;;;;;;;;;;;;;2.12;100.00;103921.25;5031495;28;20315;-75
2022/01/12 07:47:04;;;;;;;;;;;;;;;2.08;100.00;103927.16;5024749;28;19931;-75
2022/01/12 07:49:31;;;;;;;;;;;;;;;2.06;100.00;103929.66;5023386;28;19921;-75
2022/01/12 07:51:57;;;;;;;;;;;;;;;2.03;100.00;103941.63;5013686;28;20430;-76
2022/01/12 07:54:22;;;;;;;;;;;;;;;2.07;100.00;103946.13;5012503;28;20059;-75
2022/01/12 07:56:47;;;;;;;;;;;;;;;2.13;100.00;103956.72;5034725;28;20377;-76
2022/01/12 07:59:13;;;;;;;;;;;;;;;2.16;100.00;103952.53;5032209;28;19996;-76
2022/01/12 08:01:38;;;;;;;;;;;;;;;2.12;100.00;103952.34;5028761;28;20386;-76
2022/01/12 08:04:03;;;;;;;;;;;;;;;2.13;100.00;103954.13;5029931;28;19976;-78
2022/01/12 08:06:28;;;;;;;;;;;;;;;2.06;100.00;103954.72;5020815;28;19970;-77
2022/01/12 08:08:54;;;;;;;;;;;;;;;2.00;100.00;103951.06;5026352;28;20610;-77
2022/01/12 08:11:19;;;;;;;;;;;;;;;1.94;100.00;103944.72;5027874;28;20022;-78
2022/01/12 08:13:45;;;;;;;;;;;;;;;1.93;100.00;103951.66;5028314;28;19921;-76
2022/01/12 08:16:11;;;;;;;;;;;;;;;1.91;100.00;103955.88;5028435;28;19928;-77
2022/01/12 08:18:36;;;;;;;;;;;;;;;1.95;100.00;103962.06;5028175;28;19925;-77
2022/01/12 08:21:04;;;;;;;;;;;;;;;1.98;100.00;103972.56;5025178;28;19975;-77
2022/01/12 08:23:29;;;;;;;;;;;;;;;2.00;100.00;103976.97;5027747;28;19921;-77
2022/01/12 08:25:55;;;;;;;;;;;;;;;2.02;100.00;103984.84;5019165;28;19927;-76
2022/01/12 08:28:20;;;;;;;;;;;;;;;1.97;100.00;103988.94;5014841;28;19924;-76
2022/01/12 08:30:45;;;;;;;;;;;;;;;1.97;100.00;103989.84;5019518;28;19920;-76
2022/01/12 08:33:11;;;;;;;;;;;;;;;2.00;100.00;103984.75;5023235;28;20255;-76
2022/01/12 08:35:36;;;;;;;;;;;;;;;2.01;100.00;103983.94;5024624;28;20006;-75
2022/01/12 08:38:02;;;;;;;;;;;;;;;2.03;100.00;103989.22;5024639;28;19925;-76
2022/01/12 08:40:28;;;;;;;;;;;;;;;2.09;100.00;103997.22;5012614;28;20036;-76
2022/01/12 08:42:53;;;;;;;;;;;;;;;2.08;100.00;103999.78;5022260;28;19922;-76
2022/01/12 08:45:19;;;;;;;;;;;;;;;2.08;100.00;104004.97;5021911;28;19917;-75
2022/01/12 08:47:44;;;;;;;;;;;;;;;2.08;100.00;104003.22;5007928;28;19918;-75
2022/01/12 08:50:10;;;;;;;;;;;;;;;2.16;100.00;104012.19;5035153;28;19925;-75
2022/01/12 08:52:36;;;;;;;;;;;;;;;2.21;100.00;104009.78;5026367;28;19986;-76
2022/01/12 08:55:01;;;;;;;;;;;;;;;2.24;100.00;104012.50;5025287;28;20403;-75
2022/01/12 09:00:08;;;;;;;;;;;;;;;2.28;100.00;104019.59;5019502;28;19929;-75
2022/01/12 09:02:34;;;;;;;;;;;;;;;2.38;100.00;104019.94;5025721;28;19956;-77
2022/01/12 09:04:59;;;;;;;;;;;;;;;2.38;100.00;104017.34;5018807;28;19958;-76
2022/01/12 09:07:24;;;;;;;;;;;;;;;2.38;100.00;104030.34;5020199;28;20386;-77
2022/01/12 09:09:50;;;;;;;;;;;;;;;2.38;100.00;104032.94;5020639;28;19925;-76
2022/01/12 09:12:15;;;;;;;;;;;;;;;2.35;100.00;104033.69;5022166;28;20499;-77
2022/01/12 09:14:40;;;;;;;;;;;;;;;2.38;100.00;104036.41;5022692;28;20390;-75
2022/01/12 09:17:12;;;;;;;;;;;;;;;2.45;100.00;104030.63;5021436;28;19949;-76
2022/01/12 09:19:37;;;;;;;;;;;;;;;2.54;100.00;104040.47;5023349;28;20333;-75
2022/01/12 09:22:02;;;;;;;;;;;;;;;2.65;100.00;104037.44;5022366;28;19917;-76
2022/01/12 09:24:28;;;;;;;;;;;;;;;2.72;100.00;104044.63;5019870;28;19925;-77
2022/01/12 09:26:53;;;;;;;;;;;;;;;2.80;100.00;104044.91;5015775;28;20387;-77
2022/01/12 09:29:18;;;;;;;;;;;;;;;2.80;100.00;104047.50;5019566;28;19917;-76
2022/01/12 09:31:44;;;;;;;;;;;;;;;2.78;100.00;104039.66;5020221;28;20376;-78
2022/01/12 09:34:09;;;;;;;;;;;;;;;3.01;100.00;104050.00;5022982;28;19971;-76
2022/01/12 09:36:34;;;;;;;;;;;;;;;3.96;100.00;104057.66;5027625;28;19927;-76
2022/01/12 09:39:00;;;;;;;;;;;;;;;4.25;100.00;104046.44;5025344;28;19924;-76
2022/01/12 09:41:27;;;;;;;;;;;;;;;4.36;100.00;104042.44;5013693;28;19924;-75
2022/01/12 09:43:53;;;;;;;;;;;;;;;4.27;100.00;104042.16;5014890;28;19925;-75
2022/01/12 09:46:19;;;;;;;;;;;;;;;3.81;100.00;104049.34;4988642;28;19917;-75
2022/01/12 09:48:45;;;;;;;;;;;;;;;3.47;100.00;104062.06;5008436;28;20334;-77
2022/01/12 09:51:10;;;;;;;;;;;;;;;3.30;100.00;104082.25;5005825;28;19999;-75
2022/01/12 09:53:37;;;;;;;;;;;;;;;3.19;100.00;104078.38;5007618;28;19937;-75
2022/01/12 09:56:17;;;;;;;;;;;;;;;3.04;100.00;104078.69;5025682;28;19916;-77
2022/01/12 09:58:43;;;;;;;;;;;;;;;3.02;100.00;104090.75;5047083;28;19928;-76
2022/01/12 10:01:09;;;;;;;;;;;;;;;3.02;100.00;104085.56;5042993;28;19924;-76
2022/01/12 10:03:34;;;;;;;;;;;;;;;3.41;100.00;104077.47;5015300;28;19922;-76
2022/01/12 10:06:10;;;;;;;;;;;;;;;3.34;100.00;104085.84;5010796;28;19925;-76
2022/01/12 10:08:35;;;;;;;;;;;;;;;3.32;100.00;104075.41;5014303;28;19948;-77
2022/01/12 10:11:03;;;;;;;;;;;;;;;3.36;100.00;104079.00;5024256;28;19986;-75
2022/01/12 10:13:28;;;;;;;;;;;;;;;3.44;100.00;104081.88;5010198;28;19948;-76
2022/01/12 10:15:54;;;;;;;;;;;;;;;3.74;100.00;104084.69;5006530;28;20379;-77
2022/01/12 10:18:21;;;;;;;;;;;;;;;4.22;100.00;104080.16;5025197;28;20374;-76
2022/01/12 10:20:47;;;;;;;;;;;;;;;4.71;100.00;104073.00;5023772;28;19917;-76
2022/01/12 10:23:14;;;;;;;;;;;;;;;5.53;99.76;104062.28;5024860;28;19931;-75
2022/01/12 10:28:21;;;;;;;;;;;;;;;7.19;91.13;104030.38;5045001;28;19921;-75
2022/01/12 10:31:02;;;;;;;;;;;;;;;7.70;87.36;104014.72;5048172;28;19917;-76
2022/01/12 10:33:29;;;;;;;;;;;;;;;8.50;85.17;104017.69;5045698;28;19924;-75
2022/01/12 10:36:11;;;;;;;;;;;;;;;8.67;84.19;104025.78;5047595;28;19917;-75
2022/01/12 10:38:36;;;;;;;;;;;;;;;8.95;80.27;104010.38;5044515;28;19956;-78
2022/01/12 10:41:03;;;;;;;;;;;;;;;8.97;80.02;104003.41;5040455;28;20386;-75
2022/01/12 10:46:26;;;;;;;;;;;;;;;9.79;78.03;103985.78;5005570;28;19917;-76
2022/01/12 10:48:52;;;;;;;;;;;;;;;9.64;76.83;103969.94;5007704;28;19928;-76
2022/01/12 10:51:20;;;;;;;;;;;;;;;8.55;81.29;103999.41;5004481;28;19968;-75
2022/01/12 10:53:46;;;;;;;;;;;;;;;7.53;85.43;104015.31;5007687;28;19995;-76
2022/01/12 10:56:13;;;;;;;;;;;;;;;6.43;90.20;104033.16;5030004;28;20432;-76
2022/01/12 10:58:40;;;;;;;;;;;;;;;5.72;95.52;104048.00;5049483;28;20019;-77
2022/01/12 11:01:05;;;;;;;;;;;;;;;5.34;97.53;104042.66;5030509;28;19921;-78
2022/01/12 11:03:31;;;;;;;;;;;;;;;5.13;99.87;104046.41;5027282;28;20289;-77
2022/01/12 11:05:56;;;;;;;;;;;;;;;5.01;100.00;104056.53;5025456;28;20927;-77
2022/01/12 11:08:24;;;;;;;;;;;;;;;4.99;100.00;104052.97;5030958;28;19924;-76
2022/01/12 11:10:49;;;;;;;;;;;;;;;4.87;100.00;104048.28;5024508;28;20012;-76
2022/01/12 11:13:14;;;;;;;;;;;;;;;4.79;100.00;104046.34;5032202;28;20016;-75
2022/01/12 11:15:40;;;;;;;;;;;;;;;4.75;100.00;104039.28;5032275;28;19917;-76
2022/01/12 11:18:07;;;;;;;;;;;;;;;4.73;100.00;104040.06;5017944;28;20504;-75
2022/01/12 11:20:33;;;;;;;;;;;;;;;4.76;100.00;104047.97;5014693;28;20370;-77
2022/01/12 11:23:14;;;;;;;;;;;;;;;4.73;100.00;104033.16;5014325;28;19917;-76
2022/01/12 11:25:39;;;;;;;;;;;;;;;4.66;100.00;104031.19;5038284;28;19931;-76
2022/01/12 11:28:19;;;;;;;;;;;;;;;4.67;100.00;104032.97;5034528;28;20011;-75
2022/01/12 11:30:57;;;;;;;;;;;;;;;4.69;100.00;104033.00;5052309;28;20550;-76
2022/01/12 11:33:33;;;;;;;;;;;;;;;4.68;100.00;104024.31;5051772;28;20443;-76
2022/01/12 11:36:01;;;;;;;;;;;;;;;4.76;100.00;104038.44;5053850;28;20418;-75
2022/01/12 11:38:47;;;;;;;;;;;;;;;4.78;100.00;104041.97;5051753;28;20011;-76
2022/01/12 11:41:28;;;;;;;;;;;;;;;4.79;100.00;104038.53;5015435;28;19921;-76
2022/01/12 11:43:57;;;;;;;;;;;;;;;4.79;100.00;104046.34;5027455;28;19922;-76
2022/01/12 11:46:24;;;;;;;;;;;;;;;4.75;100.00;104030.59;5012489;28;19928;-76
2022/01/12 11:49:04;;;;;;;;;;;;;;;4.74;100.00;104029.69;5012122;28;19929;-75
2022/01/12 11:51:45;;;;;;;;;;;;;;;4.77;100.00;104035.00;5010852;28;19925;-75
2022/01/12 11:54:12;;;;;;;;;;;;;;;4.80;100.00;104039.41;5012466;28;19928;-76
2022/01/12 11:56:54;;;;;;;;;;;;;;;4.79;100.00;104025.50;5041715;28;20298;-76
2022/01/12 11:59:20;;;;;;;;;;;;;;;4.78;100.00;104026.34;5051690;28;19948;-77
2022/01/12 12:01:49;;;;;;;;;;;;;;;4.74;100.00;104021.00;5045855;28;20562;-77
2022/01/12 12:04:29;;;;;;;;;;;;;;;4.80;100.00;104011.66;5031717;28;19932;-76
2022/01/12 12:07:10;;;;;;;;;;;;;;;4.61;100.00;104011.97;5013278;28;19918;-75
2022/01/12 12:09:36;;;;;;;;;;;;;;;4.59;100.00;104008.41;5024932;28;19989;-77
2022/01/12 12:12:08;;;;;;;;;;;;;;;4.62;100.00;103998.09;5014734;28;19932;-74
2022/01/12 12:14:34;;;;;;;;;;;;;;;4.56;100.00;103991.00;5022656;28;19941;-75
2022/01/12 12:16:59;;;;;;;;;;;;;;;4.41;100.00;103990.53;5013490;28;20367;-77
2022/01/12 12:19:25;;;;;;;;;;;;;;;4.45;100.00;103987.19;5042514;28;19980;-76
2022/01/12 12:21:50;;;;;;;;;;;;;;;4.42;100.00;104000.97;5028025;28;20007;-73
2022/01/12 12:24:16;;;;;;;;;;;;;;;4.41;100.00;104006.13;5027891;28;20386;-74
2022/01/12 12:26:56;;;;;;;;;;;;;;;4.41;100.00;104007.00;5034152;28;20529;-76
2022/01/12 12:29:37;;;;;;;;;;;;;;;4.37;100.00;104007.78;5027933;28;19925;-74
2022/01/12 12:32:03;;;;;;;;;;;;;;;4.37;100.00;104023.38;5029010;28;19928;-75
2022/01/12 12:34:29;;;;;;;;;;;;;;;4.39;100.00;104029.53;5032051;28;19917;-75
2022/01/12 12:36:55;;;;;;;;;;;;;;;4.40;100.00;104030.41;5029554;28;19917;-76
2022/01/12 12:39:21;;;;;;;;;;;;;;;4.44;100.00;104040.09;5028281;28;20044;-74
2022/01/12 12:41:46;;;;;;;;;;;;;;;4.41;100.00;104042.59;5017379;28;20398;-75
2022/01/12 12:44:27;;;;;;;;;;;;;;;4.39;100.00;104042.56;5015835;28;19925;-75
2022/01/12 12:47:04;;;;;;;;;;;;;;;4.46;100.00;104047.09;5010356;28;20426;-75
2022/01/12 12:49:29;;;;;;;;;;;;;;;4.37;100.00;104039.00;5041446;28;20004;-75
2022/01/12 12:52:10;;;;;;;;;;;;;;;4.42;100.00;104040.03;5007439;28;20060;-73
2022/01/12 12:54:51;;;;;;;;;;;;;;;4.53;100.00;104037.75;5009312;28;19922;-74
2022/01/12 12:57:21;;;;;;;;;;;;;;;4.50;100.00;104037.66;5028078;28;19929;-74
2022/01/12 12:59:47;;;;;;;;;;;;;;;4.53;100.00;104040.38;5031069;28;19932;-75
2022/01/12 13:02:13;;;;;;;;;;;;;;;4.47;100.00;104040.16;5028336;28;19921;-75
2022/01/12 13:04:38;;;;;;;;;;;;;;;4.27;100.00;104036.94;5029371;28;20329;-73
2022/01/12 13:07:19;;;;;;;;;;;;;;;4.21;100.00;104036.75;5023977;28;19925;-74
2022/01/12 13:09:45;;;;;;;;;;;;;;;4.07;100.00;104045.03;5011229;28;19917;-73
2022/01/12 13:12:11;;;;;;;;;;;;;;;4.11;100.00;104052.06;5022344;28;19928;-74
2022/01/12 13:14:51;;;;;;;;;;;;;;;4.14;100.00;104033.06;5011877;28;20294;-75
2022/01/12 13:17:24;;;;;;;;;;;;;;;4.08;100.00;104033.75;5026692;28;19921;-74
2022/01/12 13:22:46;;;;;;;;;;;;;;;4.06;100.00;104034.53;5027605;28;19960;-75
2022/01/12 13:25:14;;;;;;;;;;;;;;;4.07;100.00;104039.81;5031633;28;19917;-75
2022/01/12 13:27:40;;;;;;;;;;;;;;;3.97;100.00;104029.94;5051015;28;19928;-75
2022/01/12 13:30:07;;;;;;;;;;;;;;;4.05;100.00;104035.38;5029939;28;19916;-74
2022/01/12 13:32:32;;;;;;;;;;;;;;;4.05;100.00;104036.28;5029283;28;19969;-75
2022/01/12 13:34:59;;;;;;;;;;;;;;;4.04;100.00;104039.69;5008116;28;19979;-73
2022/01/12 13:37:25;;;;;;;;;;;;;;;4.13;100.00;104049.53;5007862;28;19917;-74
2022/01/12 13:40:06;;;;;;;;;;;;;;;4.02;100.00;104047.44;5014633;28;20370;-74
2022/01/12 13:42:31;;;;;;;;;;;;;;;4.06;100.00;104048.44;5026630;28;19917;-75
2022/01/12 13:45:15;;;;;;;;;;;;;;;3.96;100.00;104035.97;5013029;28;19917;-76
2022/01/12 13:47:41;;;;;;;;;;;;;;;3.97;100.00;104032.53;5008572;28;19971;-75
2022/01/12 13:50:09;;;;;;;;;;;;;;;3.86;100.00;104035.66;5012168;28;19917;-75
2022/01/12 13:52:34;;;;;;;;;;;;;;;3.84;100.00;104029.53;5027220;28;19921;-75
2022/01/12 13:55:15;;;;;;;;;;;;;;;3.90;100.00;104035.75;5025498;28;19940;-73
2022/01/12 13:57:40;;;;;;;;;;;;;;;3.76;100.00;104032.72;5047893;28;19921;-75
2022/01/12 14:00:06;;;;;;;;;;;;;;;3.75;100.00;104037.00;5048085;28;19925;-74
2022/01/12 14:02:40;;;;;;;;;;;;;;;3.72;100.00;104034.31;5029262;28;19952;-75
2022/01/12 14:05:07;;;;;;;;;;;;;;;3.74;100.00;104039.56;5028162;28;20362;-75
2022/01/12 14:10:14;;;;;;;;;;;;;;;3.63;100.00;104034.00;5015923;28;19925;-74
2022/01/12 14:12:47;;;;;;;;;;;;;;;3.54;100.00;104035.44;5005726;28;19921;-73
2022/01/12 14:15:12;;;;;;;;;;;;;;;3.57;100.00;104032.09;5008225;28;19983;-75
2022/01/12 14:20:36;;;;;;;;;;;;;;;3.69;100.00;104029.00;5027089;28;19921;-74
2022/01/12 14:23:17;;;;;;;;;;;;;;;3.61;100.00;104030.47;5026444;28;20295;-74
2022/01/12 14:25:43;;;;;;;;;;;;;;;3.58;100.00;104031.25;5035220;28;19927;-74